createdAt,value
2018-06-11T00:01:08.793Z,18.60
2018-06-11T00:03:37.266Z,18.50
2018-06-11T00:06:05.802Z,18.60
2018-06-11T00:08:34.269Z,18.60
2018-06-11T00:11:02.707Z,18.50
2018-06-11T00:13:31.226Z,18.50
2018-06-11T00:15:59.913Z,18.50
2018-06-11T00:18:28.381Z,18.50
2018-06-11T00:20:56.822Z,18.50
2018-06-11T00:23:25.286Z,18.40
2018-06-11T00:25:53.706Z,18.40
2018-06-11T00:28:22.161Z,18.40
2018-06-11T00:30:50.629Z,18.40
2018-06-11T00:33:19.107Z,18.30
2018-06-11T00:38:15.688Z,18.30
2018-06-11T00:40:44.373Z,18.40
2018-06-11T00:43:13.035Z,18.40
2018-06-11T00:45:41.492Z,18.40
2018-06-11T00:48:09.967Z,18.50
2018-06-11T00:50:38.398Z,18.50
2018-06-11T00:53:06.849Z,18.40
2018-06-11T00:55:47.433Z,18.50
2018-06-11T00:58:15.887Z,18.50
2018-06-11T01:00:44.326Z,18.40
2018-06-11T01:03:12.801Z,18.50
2018-06-11T01:05:41.218Z,18.50
2018-06-11T01:08:09.660Z,18.50
2018-06-11T01:10:38.110Z,18.50
2018-06-11T01:13:06.550Z,18.50
2018-06-11T01:15:34.993Z,18.50
2018-06-11T01:18:03.473Z,18.40
2018-06-11T01:20:31.910Z,18.30
2018-06-11T01:23:00.357Z,18.40
2018-06-11T01:25:28.816Z,18.40
2018-06-11T01:27:57.267Z,18.30
2018-06-11T01:30:25.726Z,18.40
2018-06-11T01:32:54.161Z,18.30
2018-06-11T01:35:22.637Z,18.30
2018-06-11T01:37:51.097Z,18.30
2018-06-11T01:42:47.951Z,18.30
2018-06-11T01:45:16.431Z,18.30
2018-06-11T01:47:44.877Z,18.20
2018-06-11T01:50:13.316Z,18.20
2018-06-11T01:55:10.154Z,18.20
2018-06-11T01:57:38.625Z,18.20
2018-06-11T02:00:07.153Z,18.20
2018-06-11T02:02:35.620Z,18.10
2018-06-11T02:05:04.097Z,18.10
2018-06-11T02:10:00.725Z,17.90
2018-06-11T02:12:29.425Z,17.90
2018-06-11T02:14:57.921Z,17.90
2018-06-11T02:17:26.368Z,17.90
2018-06-11T02:19:55.926Z,17.90
2018-06-11T02:22:24.366Z,17.90
2018-06-11T02:24:53.083Z,17.80
2018-06-11T02:27:21.594Z,17.80
2018-06-11T02:29:50.061Z,17.80
2018-06-11T02:32:18.537Z,17.70
2018-06-11T02:34:46.988Z,17.80
2018-06-11T02:37:15.470Z,17.80
2018-06-11T02:39:43.975Z,17.80
2018-06-11T02:44:40.593Z,17.70
2018-06-11T02:47:09.084Z,17.70
2018-06-11T02:49:37.605Z,17.70
2018-06-11T02:52:06.162Z,17.80
2018-06-11T02:54:34.641Z,17.70
2018-06-11T02:57:03.369Z,17.70
2018-06-11T02:59:31.870Z,17.70
2018-06-11T03:02:00.366Z,17.60
2018-06-11T03:04:28.913Z,17.60
2018-06-11T03:06:57.385Z,17.60
2018-06-11T03:11:54.040Z,17.70
2018-06-11T03:14:22.474Z,17.70
2018-06-11T03:16:50.997Z,17.60
2018-06-11T03:19:19.573Z,17.70
2018-06-11T03:21:48.025Z,17.70
2018-06-11T03:24:16.447Z,17.70
2018-06-11T03:29:13.289Z,17.70
2018-06-11T03:31:41.714Z,17.70
2018-06-11T03:34:10.144Z,17.70
2018-06-11T03:36:38.578Z,17.80
2018-06-11T03:39:08.301Z,17.80
2018-06-11T03:41:37.306Z,17.80
2018-06-11T03:44:05.777Z,17.90
2018-06-11T03:46:34.214Z,18.00
2018-06-11T03:49:02.674Z,18.00
2018-06-11T03:51:31.313Z,18.10
2018-06-11T03:53:59.761Z,18.20
2018-06-11T03:56:28.209Z,18.20
2018-06-11T03:58:56.617Z,18.20
2018-06-11T04:01:25.049Z,18.30
2018-06-11T04:03:53.483Z,18.40
2018-06-11T04:06:21.937Z,18.50
2018-06-11T04:08:50.373Z,18.60
2018-06-11T04:11:18.801Z,18.80
2018-06-11T04:13:47.200Z,19.10
2018-06-11T04:16:18.474Z,19.20
2018-06-11T04:18:46.918Z,19.20
2018-06-11T04:21:15.378Z,19.30
2018-06-11T04:23:43.858Z,19.20
2018-06-11T04:26:12.302Z,19.20
2018-06-11T04:28:40.765Z,19.40
2018-06-11T04:31:09.400Z,19.90
2018-06-11T04:33:37.830Z,20.80
2018-06-11T04:36:06.418Z,21.70
2018-06-11T04:38:34.858Z,22.60
2018-06-11T04:41:03.269Z,23.30
2018-06-11T04:43:31.691Z,23.90
2018-06-11T04:46:00.165Z,24.30
2018-06-11T04:48:28.800Z,24.40
2018-06-11T04:50:57.226Z,24.10
2018-06-11T04:55:53.753Z,24.20
2018-06-11T04:58:22.165Z,24.20
2018-06-11T05:00:50.590Z,24.40
2018-06-11T05:03:19.032Z,24.80
2018-06-11T05:05:47.513Z,25.40
2018-06-11T05:08:15.928Z,25.60
2018-06-11T05:10:44.364Z,26.10
2018-06-11T05:13:12.810Z,26.00
2018-06-11T05:15:41.233Z,25.70
2018-06-11T05:18:09.718Z,25.90
2018-06-11T05:20:38.160Z,26.10
2018-06-11T05:23:06.598Z,26.40
2018-06-11T05:25:35.041Z,26.60
2018-06-11T05:28:03.819Z,26.70
2018-06-11T05:30:32.277Z,26.90
2018-06-11T05:33:00.730Z,26.80
2018-06-11T05:35:29.169Z,26.60
2018-06-11T05:37:57.628Z,27.20
2018-06-11T05:40:26.174Z,27.40
2018-06-11T05:42:54.593Z,27.80
2018-06-11T05:45:23.086Z,28.10
2018-06-11T05:47:52.212Z,28.10
2018-06-11T05:52:48.971Z,27.80
2018-06-11T05:57:46.026Z,27.80
2018-06-11T06:00:14.969Z,27.90
2018-06-11T06:02:43.731Z,28.00
2018-06-11T06:05:15.697Z,27.90
2018-06-11T06:07:44.434Z,28.00
2018-06-11T06:10:16.549Z,28.30
2018-06-11T06:12:48.950Z,28.50
2018-06-11T06:15:21.465Z,28.90
2018-06-11T06:17:50.326Z,28.70
2018-06-11T06:20:18.816Z,28.50
2018-06-11T06:22:47.392Z,27.70
2018-06-11T06:25:16.082Z,26.70
2018-06-11T06:27:44.570Z,26.10
2018-06-11T06:30:13.053Z,25.50
2018-06-11T06:32:42.332Z,25.00
2018-06-11T06:35:10.891Z,24.70
2018-06-11T06:37:39.736Z,24.60
2018-06-11T06:40:08.296Z,24.60
2018-06-11T06:42:36.799Z,24.60
2018-06-11T06:45:05.550Z,24.60
2018-06-11T06:47:34.016Z,24.80
2018-06-11T06:50:02.519Z,24.90
2018-06-11T06:52:30.985Z,25.10
2018-06-11T06:54:59.484Z,25.30
2018-06-11T06:57:28.009Z,25.40
2018-06-11T06:59:56.489Z,25.10
2018-06-11T07:02:25.017Z,25.00
2018-06-11T07:04:53.529Z,24.80
2018-06-11T07:07:22.034Z,24.80
2018-06-11T07:09:50.502Z,24.90
2018-06-11T07:12:18.977Z,24.70
2018-06-11T07:14:47.482Z,24.50
2018-06-11T07:17:15.983Z,24.20
2018-06-11T07:19:44.445Z,24.00
2018-06-11T07:22:12.957Z,23.70
2018-06-11T07:27:09.678Z,23.50
2018-06-11T07:29:38.170Z,23.50
2018-06-11T07:32:06.686Z,23.60
2018-06-11T07:37:03.375Z,23.50
2018-06-11T07:39:31.833Z,23.60
2018-06-11T07:42:00.338Z,23.60
2018-06-11T07:44:28.891Z,23.80
2018-06-11T07:46:57.439Z,23.80
2018-06-11T07:49:25.914Z,23.90
2018-06-11T07:51:54.435Z,24.00
2018-06-11T07:56:51.174Z,24.00
2018-06-11T07:59:19.699Z,24.10
2018-06-11T08:01:48.173Z,24.10
2018-06-11T08:04:16.725Z,24.10
2018-06-11T08:06:45.230Z,24.20
2018-06-11T08:11:42.179Z,24.30
2018-06-11T08:14:10.683Z,24.40
2018-06-11T08:19:07.346Z,24.60
2018-06-11T08:21:35.818Z,25.00
2018-06-11T08:26:32.454Z,25.50
2018-06-11T08:29:00.949Z,25.70
2018-06-11T08:31:29.459Z,25.70
2018-06-11T08:33:57.930Z,25.70
2018-06-11T08:36:26.479Z,26.10
2018-06-11T08:38:54.967Z,26.40
2018-06-11T08:41:23.482Z,26.50
2018-06-11T08:46:20.171Z,26.90
2018-06-11T08:48:48.641Z,27.10
2018-06-11T08:51:17.143Z,27.00
2018-06-11T08:53:45.674Z,27.10
2018-06-11T08:58:42.402Z,27.10
2018-06-11T09:01:10.919Z,27.00
2018-06-11T09:03:39.455Z,27.00
2018-06-11T09:06:07.950Z,26.90
2018-06-11T09:08:36.481Z,26.90
2018-06-11T09:11:05.050Z,26.90
2018-06-11T09:13:33.513Z,26.70
2018-06-11T09:16:02.075Z,26.90
2018-06-11T09:18:30.551Z,26.60
2018-06-11T09:20:59.033Z,26.30
2018-06-11T09:23:27.524Z,26.30
2018-06-11T09:25:56.030Z,26.30
2018-06-11T09:28:24.535Z,26.10
2018-06-11T09:30:53.089Z,25.90
2018-06-11T09:33:21.729Z,25.70
2018-06-11T09:35:50.278Z,25.40
2018-06-11T09:38:18.783Z,25.20
2018-06-11T09:40:47.258Z,25.20
2018-06-11T09:43:15.972Z,25.30
2018-06-11T09:45:44.503Z,25.50
2018-06-11T09:50:41.215Z,25.80
2018-06-11T09:53:09.684Z,25.80
2018-06-11T09:55:38.296Z,25.80
2018-06-11T09:58:06.852Z,25.90
2018-06-11T10:00:36.973Z,25.80
2018-06-11T10:03:05.774Z,25.70
2018-06-11T10:05:34.494Z,25.50
2018-06-11T10:08:03.118Z,25.80
2018-06-11T10:10:31.731Z,26.20
2018-06-11T10:13:00.388Z,26.60
2018-06-11T10:15:29.030Z,26.90
2018-06-11T10:17:57.678Z,27.30
2018-06-11T10:20:26.262Z,27.60
2018-06-11T10:22:55.034Z,27.40
2018-06-11T10:25:23.709Z,27.20
2018-06-11T10:27:53.196Z,27.10
2018-06-11T10:30:21.934Z,26.90
2018-06-11T10:32:50.619Z,26.70
2018-06-11T10:35:19.342Z,26.60
2018-06-11T10:37:48.021Z,26.70
2018-06-11T10:40:16.823Z,26.40
2018-06-11T10:42:45.593Z,26.10
2018-06-11T10:45:14.315Z,25.80
2018-06-11T10:50:11.236Z,25.60
2018-06-11T10:52:39.891Z,25.70
2018-06-11T10:55:08.577Z,26.10
2018-06-11T10:57:37.271Z,26.40
2018-06-11T11:00:05.976Z,26.70
2018-06-11T11:02:34.526Z,26.90
2018-06-11T11:05:03.254Z,26.50
2018-06-11T11:07:31.950Z,26.50
2018-06-11T11:10:00.567Z,26.50
2018-06-11T11:12:29.191Z,26.70
2018-06-11T11:14:57.969Z,26.90
2018-06-11T11:17:26.691Z,27.20
2018-06-11T11:19:55.529Z,27.00
2018-06-11T11:22:24.320Z,26.90
2018-06-11T11:24:52.999Z,27.00
2018-06-11T11:29:50.214Z,27.60
2018-06-11T11:32:18.912Z,27.70
2018-06-11T11:34:47.405Z,27.80
2018-06-11T11:37:15.963Z,28.20
2018-06-11T11:39:44.590Z,28.20
2018-06-11T11:42:13.044Z,28.00
2018-06-11T11:44:41.900Z,28.00
2018-06-11T11:49:39.396Z,28.20
2018-06-11T11:52:07.902Z,27.80
2018-06-11T11:54:36.398Z,27.50
2018-06-11T11:57:04.896Z,27.30
2018-06-11T11:59:33.441Z,27.50
2018-06-11T12:02:02.026Z,27.50
2018-06-11T12:04:30.559Z,27.60
2018-06-11T12:06:59.018Z,27.60
2018-06-11T12:09:27.612Z,27.70
2018-06-11T12:11:56.174Z,27.70
2018-06-11T12:14:25.201Z,27.90
2018-06-11T12:16:53.929Z,28.10
2018-06-11T12:19:22.887Z,28.00
2018-06-11T12:21:51.504Z,27.80
2018-06-11T12:24:20.328Z,28.00
2018-06-11T12:26:48.816Z,28.00
2018-06-11T12:29:17.440Z,27.70
2018-06-11T12:31:45.970Z,27.50
2018-06-11T12:34:14.779Z,27.30
2018-06-11T12:36:43.553Z,27.40
2018-06-11T12:39:12.127Z,27.30
2018-06-11T12:41:40.635Z,27.60
2018-06-11T12:44:09.117Z,27.80
2018-06-11T12:46:37.660Z,27.50
2018-06-11T12:49:10.226Z,27.20
2018-06-11T12:51:38.887Z,27.00
2018-06-11T12:54:07.772Z,26.80
2018-06-11T12:56:36.240Z,26.70
2018-06-11T12:59:05.015Z,27.00
2018-06-11T13:01:33.511Z,26.90
2018-06-11T13:04:02.058Z,27.00
2018-06-11T13:06:30.648Z,27.00
2018-06-11T13:08:59.215Z,26.70
2018-06-11T13:11:27.754Z,26.80
2018-06-11T13:13:56.374Z,26.50
2018-06-11T13:16:25.873Z,26.40
2018-06-11T13:23:51.001Z,26.50
2018-06-11T13:26:19.730Z,26.30
2018-06-11T13:28:48.295Z,26.40
2018-06-11T13:31:16.886Z,26.50
2018-06-11T13:33:45.556Z,26.10
2018-06-11T13:38:42.185Z,25.70
2018-06-11T13:41:10.690Z,25.60
2018-06-11T13:46:07.594Z,25.30
2018-06-11T13:48:36.079Z,25.40
2018-06-11T13:51:04.634Z,25.30
2018-06-11T13:56:01.277Z,25.30
2018-06-11T14:00:57.921Z,25.20
2018-06-11T14:03:26.416Z,25.20
2018-06-11T14:08:23.108Z,25.10
2018-06-11T14:10:51.631Z,25.30
2018-06-11T14:13:20.172Z,25.40
2018-06-11T14:15:48.708Z,25.60
2018-06-11T14:18:17.249Z,25.70
2018-06-11T14:20:45.752Z,25.90
2018-06-11T14:23:14.260Z,26.10
2018-06-11T14:25:42.684Z,26.20
2018-06-11T14:28:11.212Z,26.00
2018-06-11T14:30:39.666Z,26.10
2018-06-11T14:33:08.194Z,26.00
2018-06-11T14:35:36.697Z,26.00
2018-06-11T14:38:05.181Z,26.10
2018-06-11T14:40:33.696Z,26.10
2018-06-11T14:43:02.243Z,26.00
2018-06-11T14:47:58.926Z,25.60
2018-06-11T14:50:27.385Z,25.40
2018-06-11T14:52:55.898Z,25.10
2018-06-11T14:55:24.371Z,24.90
2018-06-11T14:57:53.088Z,24.70
2018-06-11T15:00:21.805Z,24.60
2018-06-11T15:02:50.366Z,24.50
2018-06-11T15:05:18.881Z,24.40
2018-06-11T15:07:47.367Z,24.30
2018-06-11T15:10:15.831Z,23.90
2018-06-11T15:12:44.311Z,23.60
2018-06-11T15:15:12.792Z,23.40
2018-06-11T15:17:41.281Z,23.20
2018-06-11T15:20:09.785Z,23.00
2018-06-11T15:22:38.750Z,23.10
2018-06-11T15:25:07.313Z,23.10
2018-06-11T15:27:35.825Z,23.10
2018-06-11T15:30:04.329Z,23.10
2018-06-11T15:32:32.804Z,23.00
2018-06-11T15:37:29.442Z,22.60
2018-06-11T15:39:57.923Z,22.50
2018-06-11T15:42:26.415Z,22.40
2018-06-11T15:44:54.886Z,22.20
2018-06-11T15:47:23.500Z,21.90
2018-06-11T15:49:51.962Z,21.80
2018-06-11T15:52:20.404Z,21.70
2018-06-11T15:54:48.955Z,21.40
2018-06-11T15:57:17.413Z,21.20
2018-06-11T15:59:45.904Z,20.80
2018-06-11T16:04:42.518Z,20.20
2018-06-11T16:07:10.979Z,20.30
2018-06-11T16:09:42.952Z,20.50
2018-06-11T16:12:11.425Z,20.80
2018-06-11T16:14:39.952Z,21.00
2018-06-11T16:17:08.431Z,20.70
2018-06-11T16:19:36.955Z,20.70
2018-06-11T16:22:05.551Z,20.50
2018-06-11T16:24:34.038Z,20.30
2018-06-11T16:27:02.540Z,20.10
2018-06-11T16:29:30.985Z,19.90
2018-06-11T16:31:59.426Z,19.70
2018-06-11T16:34:27.891Z,19.60
2018-06-11T16:36:56.428Z,19.30
2018-06-11T16:39:25.032Z,19.10
2018-06-11T16:41:53.450Z,19.00
2018-06-11T16:44:21.910Z,19.10
2018-06-11T16:46:50.374Z,18.90
2018-06-11T16:49:18.937Z,18.90
2018-06-11T16:51:47.395Z,18.70
2018-06-11T16:54:15.890Z,18.60
2018-06-11T16:59:12.518Z,18.70
2018-06-11T17:01:40.962Z,18.60
2018-06-11T17:04:09.457Z,18.70
2018-06-11T17:06:37.898Z,18.60
2018-06-11T17:09:08.122Z,18.70
2018-06-11T17:14:05.217Z,18.40
2018-06-11T17:16:33.629Z,18.30
2018-06-11T17:19:02.147Z,18.40
2018-06-11T17:21:30.644Z,18.40
2018-06-11T17:23:59.134Z,18.60
2018-06-11T17:26:27.730Z,18.70
2018-06-11T17:28:56.215Z,18.60
2018-06-11T17:31:24.674Z,18.70
2018-06-11T17:33:53.151Z,18.70
2018-06-11T17:36:21.629Z,18.60
2018-06-11T17:41:18.321Z,18.70
2018-06-11T17:43:46.804Z,18.80
2018-06-11T17:46:15.246Z,18.60
2018-06-11T17:48:44.767Z,18.40
2018-06-11T17:51:13.301Z,18.50
2018-06-11T17:53:41.938Z,18.40
2018-06-11T17:56:10.506Z,18.40
2018-06-11T17:58:39.145Z,18.40
2018-06-11T18:01:07.668Z,18.50
2018-06-11T18:03:36.254Z,18.40
2018-06-11T18:08:32.945Z,18.40
2018-06-11T18:11:01.478Z,18.40
2018-06-11T18:13:29.953Z,18.50
2018-06-11T18:15:58.453Z,18.50
2018-06-11T18:18:26.983Z,18.60
2018-06-11T18:20:55.549Z,18.70
2018-06-11T18:23:24.060Z,18.70
2018-06-11T18:25:52.551Z,18.60
2018-06-11T18:28:21.060Z,18.30
2018-06-11T18:30:49.533Z,18.30
2018-06-11T18:33:18.070Z,18.40
2018-06-11T18:35:46.623Z,18.50
2018-06-11T18:40:43.433Z,18.60
2018-06-11T18:43:11.990Z,18.70
2018-06-11T18:45:40.561Z,18.70
2018-06-11T18:48:09.109Z,18.70
2018-06-11T18:50:37.605Z,18.70
2018-06-11T18:53:06.334Z,18.70
2018-06-11T18:55:34.841Z,18.70
2018-06-11T18:58:03.268Z,18.80
2018-06-11T19:00:31.745Z,18.70
2018-06-11T19:03:00.240Z,18.80
2018-06-11T19:07:56.841Z,18.60
2018-06-11T19:10:25.357Z,18.50
2018-06-11T19:12:53.785Z,18.50
2018-06-11T19:15:22.275Z,18.70
2018-06-11T19:17:50.690Z,18.70
2018-06-11T19:20:19.205Z,18.70
2018-06-11T19:25:16.024Z,18.60
2018-06-11T19:27:44.466Z,18.50
2018-06-11T19:30:12.941Z,18.40
2018-06-11T19:32:41.351Z,18.30
2018-06-11T19:35:09.833Z,18.30
2018-06-11T19:37:38.240Z,18.30
2018-06-11T19:40:06.742Z,18.30
2018-06-11T19:42:35.178Z,18.20
2018-06-11T19:45:03.758Z,18.20
2018-06-11T19:47:33.216Z,18.30
2018-06-11T19:50:01.728Z,18.30
2018-06-11T19:52:30.152Z,18.30
2018-06-11T19:54:58.645Z,18.30
2018-06-11T19:57:27.137Z,18.40
2018-06-11T19:59:55.655Z,18.30
2018-06-11T20:02:24.201Z,18.20
2018-06-11T20:04:52.705Z,18.20
2018-06-11T20:09:49.952Z,18.40
2018-06-11T20:12:18.515Z,18.40
2018-06-11T20:14:46.954Z,18.40
2018-06-11T20:17:15.490Z,18.50
2018-06-11T20:19:44.003Z,18.40
2018-06-11T20:24:40.637Z,18.30
2018-06-11T20:27:09.151Z,18.30
2018-06-11T20:29:37.623Z,18.30
2018-06-11T20:32:06.185Z,18.30
2018-06-11T20:34:34.631Z,18.30
2018-06-11T20:37:03.142Z,18.20
2018-06-11T20:39:31.613Z,18.20
2018-06-11T20:42:00.034Z,18.20
2018-06-11T20:46:56.627Z,18.00
2018-06-11T20:49:25.100Z,18.00
2018-06-11T20:51:53.642Z,18.00
2018-06-11T20:54:22.690Z,18.00
2018-06-11T20:56:51.183Z,18.00
2018-06-11T20:59:19.734Z,18.00
2018-06-11T21:01:48.256Z,18.00
2018-06-11T21:04:16.737Z,17.90
2018-06-11T21:06:45.206Z,17.70
2018-06-11T21:09:13.674Z,17.60
2018-06-11T21:11:42.146Z,17.60
2018-06-11T21:14:10.577Z,17.60
2018-06-11T21:16:39.061Z,17.60
2018-06-11T21:19:07.901Z,17.60
2018-06-11T21:21:36.361Z,17.60
2018-06-11T21:24:04.888Z,17.50
2018-06-11T21:29:01.418Z,17.40
2018-06-11T21:31:29.871Z,17.40
2018-06-11T21:33:58.510Z,17.40
2018-06-11T21:36:26.929Z,17.40
2018-06-11T21:38:55.394Z,17.50
2018-06-11T21:41:23.874Z,17.50
2018-06-11T21:43:52.371Z,17.50
2018-06-11T21:46:20.799Z,17.50
2018-06-11T21:48:49.247Z,17.50
2018-06-11T21:51:17.678Z,17.50
2018-06-11T21:53:46.209Z,17.50
2018-06-11T21:56:14.656Z,17.50
2018-06-11T21:58:43.182Z,17.50
2018-06-11T22:01:11.705Z,17.50
2018-06-11T22:03:40.189Z,17.50
2018-06-11T22:06:08.657Z,17.40
2018-06-11T22:08:37.151Z,17.40
2018-06-11T22:11:05.569Z,17.40
2018-06-11T22:13:34.021Z,17.40
2018-06-11T22:16:02.703Z,17.30
2018-06-11T22:18:31.235Z,17.30
2018-06-11T22:20:59.726Z,17.30
2018-06-11T22:23:28.394Z,17.30
2018-06-11T22:25:56.910Z,17.20
2018-06-11T22:30:53.555Z,17.30
2018-06-11T22:33:21.970Z,17.30
2018-06-11T22:35:50.424Z,17.20
2018-06-11T22:38:18.911Z,17.20
2018-06-11T22:45:43.643Z,17.20
2018-06-11T22:48:12.344Z,17.10
2018-06-11T22:50:40.842Z,17.10
2018-06-11T22:53:09.318Z,17.00
2018-06-11T22:55:37.810Z,17.10
2018-06-11T22:58:07.716Z,17.10
2018-06-11T23:00:36.222Z,17.00
2018-06-11T23:03:04.718Z,17.00
2018-06-11T23:05:33.241Z,17.00
2018-06-11T23:08:01.721Z,16.90
2018-06-11T23:12:58.674Z,16.90
2018-06-11T23:17:55.505Z,16.80
2018-06-11T23:20:24.036Z,16.80
2018-06-11T23:22:52.483Z,16.80
2018-06-11T23:25:20.962Z,16.70
2018-06-11T23:27:49.409Z,16.70
2018-06-11T23:30:17.878Z,16.70
2018-06-11T23:32:46.358Z,16.60
2018-06-11T23:35:14.833Z,16.60
2018-06-11T23:37:43.288Z,16.60
2018-06-11T23:40:11.786Z,16.50
2018-06-11T23:42:40.270Z,16.50
2018-06-11T23:47:36.861Z,16.40
2018-06-11T23:50:05.331Z,16.60
2018-06-11T23:52:33.771Z,16.70
2018-06-11T23:55:02.571Z,16.70
